Time;durP1;ratioP1;P1;durP2;ratioP2;P2;SDS_P1;SDS_P2;PMS_P1;PMS_P2;Temp;Humidity;BMP_temperature;BMP_pressure;BME280_temperature;BME280_humidity;BME280_pressure;Samples;Min_cycle;Max_cycle;Signal;HPM_P1;HPM_P2
2022/05/14 00:01:34;;;;;;;15.15;12.10;;;;;;;14.73;91.97;97567.72;1861678;77;21078;-77
2022/05/14 00:04:01;;;;;;;16.50;11.68;;;;;;;14.69;91.33;97561.31;1861645;77;21460;-77
2022/05/14 00:06:29;;;;;;;13.98;11.18;;;;;;;14.65;91.23;97561.45;1861623;77;20986;-77
2022/05/14 00:08:56;;;;;;;15.58;11.88;;;;;;;14.63;91.39;97564.69;1861527;77;21081;-76
2022/05/14 00:14:09;;;;;;;17.23;11.43;;;;;;;14.61;92.07;97557.69;1861579;77;21400;-76
2022/05/14 00:16:37;;;;;;;13.72;11.40;;;;;;;14.59;92.04;97555.13;1861457;77;21041;-76
2022/05/14 00:19:05;;;;;;;14.15;11.05;;;;;;;14.57;92.22;97549.48;1861384;77;21029;-76
2022/05/14 00:21:32;;;;;;;12.85;10.80;;;;;;;14.53;92.19;97547.43;1861656;77;20955;-76
2022/05/14 00:23:58;;;;;;;14.83;11.00;;;;;;;14.49;91.92;97563.23;1861650;77;21042;-76
2022/05/14 00:26:26;;;;;;;12.73;9.95;;;;;;;14.39;92.27;97567.70;1861443;77;21053;-76
2022/05/14 00:28:52;;;;;;;20.17;11.65;;;;;;;14.26;94.09;97569.27;1861611;77;20947;-76
2022/05/14 00:31:19;;;;;;;13.83;9.83;;;;;;;14.23;92.44;97564.96;1861600;77;21467;-76
2022/05/14 00:33:46;;;;;;;15.55;10.63;;;;;;;14.17;93.33;97563.08;1861473;77;21065;-76
2022/05/14 00:36:14;;;;;;;13.08;10.15;;;;;;;14.13;94.20;97561.89;1861497;77;20979;-76
2022/05/14 00:38:41;;;;;;;12.25;10.30;;;;;;;14.12;92.72;97556.67;1861562;77;20986;-77
2022/05/14 00:41:09;;;;;;;15.00;10.35;;;;;;;14.13;92.15;97562.38;1861361;77;20967;-77
2022/05/14 00:43:51;;;;;;;14.83;10.53;;;;;;;14.11;92.36;97562.91;1848894;77;21375;-76
2022/05/14 00:46:21;;;;;;;13.48;10.45;;;;;;;14.11;92.14;97562.45;1842598;77;21421;-76
2022/05/14 00:48:50;;;;;;;14.93;10.90;;;;;;;14.14;91.68;97562.77;1843504;77;20973;-76
2022/05/14 00:51:20;;;;;;;12.75;11.35;;;;;;;14.12;91.25;97559.33;1843737;77;20993;-76
2022/05/14 00:53:54;;;;;;;12.50;10.13;;;;;;;14.15;91.30;97564.48;1843589;77;21393;-77
2022/05/14 00:56:23;;;;;;;13.00;9.60;;;;;;;14.18;91.12;97564.80;1843319;77;21522;-77
2022/05/14 00:58:54;;;;;;;12.55;10.43;;;;;;;14.15;90.65;97563.64;1843634;77;21001;-76
2022/05/14 01:01:20;;;;;;;14.45;10.00;;;;;;;14.14;90.57;97564.09;1843403;77;21024;-77
2022/05/14 01:03:47;;;;;;;12.33;9.98;;;;;;;14.10;90.26;97558.53;1843678;77;21044;-77
2022/05/14 01:06:17;;;;;;;13.32;9.98;;;;;;;14.07;91.01;97552.89;1843727;77;21015;-77
2022/05/14 01:08:44;;;;;;;13.03;9.30;;;;;;;14.08;90.84;97557.76;1843749;77;20997;-76
2022/05/14 01:11:12;;;;;;;15.10;10.28;;;;;;;14.09;90.33;97555.48;1843783;78;21529;-76
2022/05/14 01:13:39;;;;;;;11.45;8.53;;;;;;;14.04;90.03;97558.85;1822589;78;20989;-76
2022/05/14 01:16:07;;;;;;;11.45;8.20;;;;;;;14.03;90.27;97561.97;1843634;77;20992;-76
2022/05/14 01:18:35;;;;;;;10.05;8.18;;;;;;;14.01;90.42;97568.32;1843731;78;21017;-76
2022/05/14 01:21:18;;;;;;;15.08;9.15;;;;;;;14.00;90.14;97566.14;1843698;78;20997;-76
2022/05/14 01:26:49;;;;;;;12.15;9.23;;;;;;;13.95;90.33;97555.70;1843845;78;21036;-76
2022/05/14 01:29:22;;;;;;;10.58;9.15;;;;;;;13.86;90.70;97560.16;1822620;78;21013;-76
2022/05/14 01:31:50;;;;;;;;;;;;;;;13.77;91.06;97559.28;1846537;78;21433;-76
2022/05/14 01:34:20;;;;;;;14.65;8.98;;;;;;;13.71;90.96;97564.46;1843826;78;20132;-76
2022/05/14 01:36:48;;;;;;;13.45;7.90;;;;;;;13.66;90.83;97562.01;1843632;77;21024;-76
2022/05/14 01:39:15;;;;;;;21.52;8.30;;;;;;;13.59;90.86;97557.45;1843594;78;21088;-76
2022/05/14 01:41:42;;;;;;;8.05;7.15;;;;;;;13.56;90.77;97562.07;1843783;77;21017;-76
2022/05/14 01:44:09;;;;;;;9.55;7.62;;;;;;;13.49;91.34;97564.16;1843529;78;21040;-76
2022/05/14 01:46:36;;;;;;;11.55;7.62;;;;;;;13.45;91.23;97563.42;1843632;77;21465;-76
2022/05/14 01:49:03;;;;;;;7.65;6.83;;;;;;;13.42;91.46;97560.05;1843567;77;21001;-76
2022/05/14 01:51:31;;;;;;;11.50;7.70;;;;;;;13.42;91.22;97560.90;1843681;78;20922;-76
2022/05/14 01:53:59;;;;;;;10.93;7.42;;;;;;;13.41;90.90;97556.52;1843583;78;20989;-76
2022/05/14 01:56:26;;;;;;;9.28;7.33;;;;;;;13.38;91.94;97556.69;1843442;77;21044;-76
2022/05/14 01:58:53;;;;;;;11.85;6.55;;;;;;;13.39;91.08;97562.40;1843736;77;20949;-76
2022/05/14 02:01:33;;;;;;;12.85;6.50;;;;;;;13.37;91.39;97564.73;1843735;77;21074;-76
2022/05/14 02:04:06;;;;;;;9.20;6.80;;;;;;;13.39;90.64;97561.06;1843746;77;21005;-76
2022/05/14 02:06:33;;;;;;;33.08;7.85;;;;;;;13.40;90.77;97563.24;1844000;77;20946;-76
2022/05/14 02:09:03;;;;;;;8.78;6.30;;;;;;;13.40;90.47;97569.44;1843720;78;21085;-76
2022/05/14 02:11:30;;;;;;;10.55;6.42;;;;;;;13.40;90.45;97572.10;1843683;78;21009;-76
2022/05/14 02:13:59;;;;;;;7.78;6.00;;;;;;;13.43;90.08;97575.96;1843058;77;21161;-76
2022/05/14 02:16:26;;;;;;;9.08;6.33;;;;;;;13.41;89.82;97580.97;1822670;78;21055;-76
2022/05/14 02:18:52;;;;;;;8.45;6.70;;;;;;;13.39;89.78;97575.70;1843660;78;21036;-76
2022/05/14 02:21:20;;;;;;;8.15;6.58;;;;;;;13.37;90.08;97584.70;1843652;78;21020;-76
2022/05/14 02:23:48;;;;;;;8.00;6.37;;;;;;;13.37;89.68;97585.55;1843792;77;21030;-76
2022/05/14 02:26:14;;;;;;;9.35;6.50;;;;;;;13.36;89.64;97586.98;1843718;78;21008;-76
2022/05/14 02:28:41;;;;;;;10.60;6.37;;;;;;;13.29;89.84;97582.41;1822730;78;21470;-76
2022/05/14 02:31:08;;;;;;;9.18;6.37;;;;;;;13.27;90.19;97585.59;1843790;77;20929;-76
2022/05/14 02:33:36;;;;;;;7.03;6.33;;;;;;;13.20;90.74;97582.35;1843785;77;21000;-76
2022/05/14 02:36:04;;;;;;;9.30;6.22;;;;;;;13.16;90.39;97578.13;1822676;78;20950;-76
2022/05/14 02:38:32;;;;;;;10.78;5.67;;;;;;;13.18;89.85;97584.23;1843690;78;21083;-76
2022/05/14 02:40:59;;;;;;;9.13;5.90;;;;;;;13.17;89.97;97574.05;1843763;78;21008;-76
2022/05/14 02:43:26;;;;;;;7.08;5.72;;;;;;;13.22;89.88;97583.16;1843752;77;21065;-76
2022/05/14 02:45:52;;;;;;;7.80;5.70;;;;;;;13.26;89.73;97587.86;1843773;78;21016;-76
2022/05/14 02:48:19;;;;;;;6.53;5.00;;;;;;;13.22;89.89;97585.82;1823016;78;20992;-76
2022/05/14 02:50:47;;;;;;;8.95;4.85;;;;;;;13.18;89.90;97580.24;1843884;77;20977;-76
2022/05/14 02:53:16;;;;;;;8.65;5.37;;;;;;;13.16;89.77;97579.47;1843619;78;20969;-76
2022/05/14 02:55:43;;;;;;;7.17;5.35;;;;;;;13.15;89.67;97579.05;1844071;77;21371;-77
2022/05/14 02:58:09;;;;;;;9.35;5.40;;;;;;;13.13;89.54;97585.80;1849951;77;20981;-77
2022/05/14 03:00:35;;;;;;;6.85;4.62;;;;;;;13.12;89.72;97585.86;1849713;77;21122;-77
2022/05/14 03:03:02;;;;;;;8.90;5.15;;;;;;;13.08;89.67;97579.80;1850234;77;21450;-76
2022/05/14 03:05:28;;;;;;;7.70;5.17;;;;;;;13.07;89.71;97580.73;1849984;77;21020;-76
2022/05/14 03:07:55;;;;;;;7.45;5.10;;;;;;;13.04;90.01;97582.23;1850054;77;21024;-76
2022/05/14 03:10:22;;;;;;;6.15;5.55;;;;;;;12.99;90.27;97582.91;1850038;77;21012;-76
2022/05/14 03:12:49;;;;;;;8.08;5.17;;;;;;;13.01;89.83;97583.23;1850080;77;20987;-76
2022/05/14 03:15:15;;;;;;;7.10;4.55;;;;;;;12.99;89.95;97579.77;1849832;77;20989;-76
2022/05/14 03:17:42;;;;;;;5.53;4.35;;;;;;;13.01;89.58;97589.01;1849995;77;21080;-76
2022/05/14 03:20:11;;;;;;;6.05;3.90;;;;;;;13.08;89.21;97581.12;1850114;77;21028;-76
2022/05/14 03:22:40;;;;;;;6.03;3.40;;;;;;;13.21;88.76;97581.44;1849864;77;20984;-76
2022/05/14 03:25:08;;;;;;;7.42;3.90;;;;;;;13.41;88.43;97576.97;1849874;77;21064;-77
2022/05/14 03:27:35;;;;;;;5.25;3.72;;;;;;;13.62;87.01;97583.06;1849818;77;21040;-77
2022/05/14 03:30:01;;;;;;;3.85;3.35;;;;;;;13.77;86.05;97578.80;1849998;77;21080;-76
2022/05/14 03:32:28;;;;;;;5.80;3.60;;;;;;;13.87;86.36;97580.52;1850098;77;20984;-77
2022/05/14 03:34:54;;;;;;;7.70;4.28;;;;;;;13.92;85.69;97588.30;1849604;77;20984;-76
2022/05/14 03:37:24;;;;;;;5.58;3.70;;;;;;;13.91;85.33;97591.42;1850079;77;21040;-77
2022/05/14 03:39:50;;;;;;;6.60;4.42;;;;;;;13.89;85.57;97595.98;1850084;77;21049;-76
2022/05/14 03:42:17;;;;;;;5.85;4.55;;;;;;;13.85;84.90;97600.60;1849766;77;20984;-77
2022/05/14 03:44:43;;;;;;;9.68;4.62;;;;;;;13.80;85.15;97597.76;1850144;77;21060;-76
2022/05/14 03:47:10;;;;;;;9.05;4.70;;;;;;;13.76;85.09;97606.38;1849916;77;21037;-76
2022/05/14 03:49:36;;;;;;;5.45;4.65;;;;;;;13.73;85.35;97606.52;1849838;77;21035;-76
2022/05/14 03:52:03;;;;;;;8.15;5.15;;;;;;;13.72;85.13;97614.12;1850064;77;20973;-76
2022/05/14 03:54:29;;;;;;;9.30;4.42;;;;;;;13.68;85.11;97612.08;1849909;77;21020;-76
2022/05/14 03:56:56;;;;;;;9.95;5.12;;;;;;;13.61;85.27;97615.95;1847214;77;20988;-75
2022/05/14 03:59:23;;;;;;;7.65;4.60;;;;;;;13.58;85.53;97614.80;1843672;78;21009;-76
2022/05/14 04:01:49;;;;;;;5.62;4.55;;;;;;;13.58;85.86;97617.45;1843723;78;21038;-76
2022/05/14 04:04:15;;;;;;;14.33;4.33;;;;;;;13.59;85.51;97621.35;1843683;78;21036;-76
2022/05/14 04:06:42;;;;;;;6.90;4.20;;;;;;;13.58;85.34;97614.30;1843423;77;21462;-76
2022/05/14 04:09:08;;;;;;;8.70;4.55;;;;;;;13.66;85.63;97619.75;1843816;77;20981;-76
2022/05/14 04:11:35;;;;;;;6.28;4.22;;;;;;;13.73;85.37;97625.16;1843616;78;21000;-76
2022/05/14 04:14:02;;;;;;;8.90;4.17;;;;;;;13.76;85.43;97621.03;1843814;78;20988;-76
2022/05/14 04:16:29;;;;;;;7.55;3.95;;;;;;;13.80;85.22;97623.06;1843552;77;21453;-76
2022/05/14 04:18:56;;;;;;;6.92;3.95;;;;;;;13.81;85.23;97623.45;1843693;77;21009;-76
2022/05/14 04:21:22;;;;;;;7.97;4.00;;;;;;;13.80;85.24;97624.39;1822544;78;21069;-76
2022/05/14 04:23:48;;;;;;;7.75;4.20;;;;;;;13.77;85.57;97629.86;1843501;78;21370;-76
2022/05/14 04:26:15;;;;;;;7.42;4.33;;;;;;;13.80;85.39;97629.27;1843715;78;21040;-76
2022/05/14 04:28:41;;;;;;;11.22;4.20;;;;;;;13.85;85.18;97641.02;1843715;78;21016;-76
2022/05/14 04:31:08;;;;;;;6.83;3.90;;;;;;;13.86;85.28;97634.28;1843547;77;20993;-76
2022/05/14 04:33:34;;;;;;;5.92;4.25;;;;;;;13.91;85.27;97635.86;1843558;77;21063;-76
2022/05/14 04:36:01;;;;;;;4.85;3.62;;;;;;;13.95;85.36;97642.28;1843967;78;21470;-76
2022/05/14 04:38:27;;;;;;;7.60;3.80;;;;;;;14.02;85.28;97640.64;1843906;77;20965;-77
2022/05/14 04:40:54;;;;;;;4.95;4.15;;;;;;;14.07;85.08;97638.64;1823081;78;20938;-76
2022/05/14 04:43:21;;;;;;;8.50;3.77;;;;;;;14.13;85.03;97639.17;1843730;78;21004;-76
2022/05/14 04:45:47;;;;;;;6.70;4.40;;;;;;;14.21;85.15;97639.27;1843724;77;21055;-75
2022/05/14 04:48:15;;;;;;;8.68;3.90;;;;;;;14.31;84.95;97632.99;1822114;78;21777;-76
2022/05/14 04:50:42;;;;;;;5.87;3.65;;;;;;;14.38;84.65;97635.27;1843868;78;21005;-76
2022/05/14 04:53:08;;;;;;;12.15;4.12;;;;;;;14.47;84.50;97635.75;1843574;77;20981;-76
2022/05/14 04:55:36;;;;;;;5.53;3.58;;;;;;;14.54;84.36;97634.51;1843640;78;21409;-76
2022/05/14 04:58:04;;;;;;;7.30;4.17;;;;;;;14.60;84.20;97634.64;1843370;77;21007;-76
2022/05/14 05:00:30;;;;;;;4.95;3.90;;;;;;;14.65;83.71;97644.14;1843531;77;20965;-76
2022/05/14 05:05:41;;;;;;;7.30;3.80;;;;;;;14.75;83.52;97650.33;1843660;78;21072;-76
2022/05/14 05:08:09;;;;;;;4.58;4.03;;;;;;;14.78;83.29;97647.05;1844025;77;21374;-76
2022/05/14 05:10:36;;;;;;;6.40;4.45;;;;;;;14.86;83.33;97645.31;1843672;78;21445;-76
2022/05/14 05:13:03;;;;;;;14.18;8.65;;;;;;;14.94;83.28;97651.58;1843590;77;21402;-76
2022/05/14 05:15:29;;;;;;;8.53;4.33;;;;;;;15.02;83.31;97638.70;1843793;78;20961;-76
2022/05/14 05:17:56;;;;;;;8.28;4.15;;;;;;;15.12;83.43;97643.05;1843726;78;21429;-76
2022/05/14 05:20:22;;;;;;;7.70;4.30;;;;;;;15.24;83.38;97633.52;1843597;77;21044;-76
2022/05/14 05:22:50;;;;;;;7.62;4.53;;;;;;;15.38;83.42;97644.80;1843675;78;21036;-76
2022/05/14 05:25:16;;;;;;;7.65;4.40;;;;;;;15.50;83.33;97646.39;1843802;78;21088;-76
2022/05/14 05:27:43;;;;;;;10.53;4.35;;;;;;;15.60;82.97;97642.27;1843753;77;21036;-76
2022/05/14 05:30:09;;;;;;;5.75;4.22;;;;;;;15.68;82.31;97642.70;1843910;77;20950;-76
2022/05/14 05:32:36;;;;;;;7.15;4.78;;;;;;;15.76;82.21;97644.94;1843979;78;21043;-76
2022/05/14 05:35:04;;;;;;;5.97;4.97;;;;;;;15.84;82.04;97644.50;1843650;78;21449;-76
2022/05/14 05:37:30;;;;;;;7.37;4.75;;;;;;;15.92;82.17;97651.62;1844112;77;20957;-76
2022/05/14 05:39:57;;;;;;;6.97;4.67;;;;;;;16.00;82.10;97652.55;1843985;78;21037;-76
2022/05/14 05:42:23;;;;;;;11.78;4.85;;;;;;;16.10;82.08;97655.08;1843813;78;21072;-76
2022/05/14 05:44:50;;;;;;;10.00;5.05;;;;;;;16.19;82.06;97646.98;1822663;78;21004;-76
2022/05/14 05:47:17;;;;;;;6.10;4.75;;;;;;;16.29;81.72;97647.78;1843955;77;20985;-76
2022/05/14 05:49:43;;;;;;;7.50;5.08;;;;;;;16.39;81.59;97653.47;1843700;78;21036;-76
2022/05/14 05:52:11;;;;;;;6.00;4.53;;;;;;;16.52;81.67;97657.12;1843930;78;21021;-76
2022/05/14 05:57:39;;;;;;;8.33;4.30;;;;;;;16.84;81.34;97653.00;1843791;77;21526;-76
2022/05/14 06:00:09;;;;;;;12.98;4.62;;;;;;;17.05;81.31;97654.47;1843719;78;21148;-76
2022/05/14 06:02:38;;;;;;;7.70;4.85;;;;;;;17.19;79.56;97649.61;1843773;77;20973;-76
2022/05/14 06:05:05;;;;;;;6.92;4.30;;;;;;;17.31;79.99;97647.98;1843679;77;21478;-76
2022/05/14 06:07:34;;;;;;;6.62;4.95;;;;;;;17.43;79.35;97648.53;1843756;77;21429;-76
2022/05/14 06:10:04;;;;;;;14.98;10.10;;;;;;;17.52;78.51;97651.97;1843586;78;21004;-76
2022/05/14 06:12:30;;;;;;;8.30;4.35;;;;;;;17.63;78.88;97648.62;1843928;78;20957;-76
2022/05/14 06:14:56;;;;;;;6.00;3.98;;;;;;;17.73;78.88;97646.69;1843810;78;21087;-76
2022/05/14 06:17:23;;;;;;;5.67;4.47;;;;;;;17.85;78.91;97651.23;1843665;78;21024;-76
2022/05/14 06:19:49;;;;;;;9.73;5.15;;;;;;;17.96;77.07;97655.91;1843721;77;20993;-76
2022/05/14 06:22:15;;;;;;;5.92;3.85;;;;;;;18.06;77.24;97652.16;1843852;78;21008;-76
2022/05/14 06:24:42;;;;;;;5.47;4.35;;;;;;;18.19;76.66;97652.23;1843694;78;21040;-76
2022/05/14 06:27:09;;;;;;;7.90;4.72;;;;;;;18.32;77.31;97649.59;1843552;78;21004;-76
2022/05/14 06:29:35;;;;;;;5.67;3.37;;;;;;;18.49;77.17;97650.26;1843723;77;21441;-76
2022/05/14 06:32:02;;;;;;;6.10;3.67;;;;;;;18.63;76.02;97645.31;1843620;78;21107;-76
2022/05/14 06:34:28;;;;;;;4.08;3.40;;;;;;;18.79;74.55;97651.81;1843847;77;21398;-76
2022/05/14 06:36:55;;;;;;;5.80;3.30;;;;;;;18.85;72.09;97652.75;1843672;78;21008;-76
2022/05/14 06:39:22;;;;;;;3.67;3.10;;;;;;;18.92;72.74;97642.42;1843665;78;21141;-76
2022/05/14 06:41:48;;;;;;;4.10;3.10;;;;;;;19.06;71.42;97647.72;1843678;77;21032;-76
2022/05/14 06:44:15;;;;;;;4.85;3.47;;;;;;;19.25;72.78;97641.92;1843786;78;20988;-76
2022/05/14 06:46:41;;;;;;;5.17;3.20;;;;;;;19.38;70.16;97649.09;1843636;78;21067;-76
2022/05/14 06:49:07;;;;;;;4.78;3.60;;;;;;;19.51;71.63;97648.59;1843767;77;20945;-76
2022/05/14 06:51:34;;;;;;;5.97;3.58;;;;;;;19.65;71.95;97648.93;1843716;78;20985;-76
2022/05/14 06:54:04;;;;;;;4.92;3.12;;;;;;;19.77;70.51;97650.38;1844082;78;21405;-76
2022/05/14 06:56:33;;;;;;;5.10;2.98;;;;;;;19.77;69.53;97647.69;1843962;78;21442;-76
2022/05/14 06:59:00;;;;;;;4.35;3.27;;;;;;;19.85;69.89;97656.53;1844863;77;20973;-77
2022/05/14 07:01:29;;;;;;;6.30;3.50;;;;;;;19.92;68.46;97655.97;1844899;78;21433;-77
2022/05/14 07:06:44;;;;;;;3.60;3.12;;;;;;;19.91;66.80;97652.91;1844930;78;21377;-76
2022/05/14 07:09:19;;;;;;;3.47;2.90;;;;;;;19.85;66.62;97653.34;1844867;78;20965;-76
2022/05/14 07:11:49;;;;;;;4.80;3.10;;;;;;;19.73;66.27;97654.25;1845166;78;20996;-76
2022/05/14 07:14:19;;;;;;;9.20;7.55;;;;;;;19.74;66.78;97655.97;1845036;78;21012;-76
2022/05/14 07:16:47;;;;;;;8.45;4.53;;;;;;;19.74;66.61;97648.77;1844939;78;21008;-77
2022/05/14 07:19:15;;;;;;;3.55;3.05;;;;;;;19.81;66.58;97653.22;1844839;78;20956;-77
2022/05/14 07:21:43;;;;;;;6.17;2.83;;;;;;;19.78;66.33;97650.73;1845059;78;21027;-77
2022/05/14 07:24:12;;;;;;;4.22;3.60;;;;;;;19.76;66.45;97652.66;1844884;78;20977;-77
2022/05/14 07:26:40;;;;;;;6.03;3.30;;;;;;;19.78;67.09;97653.43;1844875;78;21417;-76
2022/05/14 07:29:09;;;;;;;3.72;2.87;;;;;;;19.85;66.54;97649.81;1844911;78;21480;-77
2022/05/14 07:31:36;;;;;;;5.72;3.30;;;;;;;19.94;67.15;97648.27;1844884;78;21017;-76
2022/05/14 07:34:03;;;;;;;4.05;3.42;;;;;;;20.01;66.20;97658.48;1844788;78;21048;-76
2022/05/14 07:36:32;;;;;;;6.35;3.15;;;;;;;20.07;66.90;97654.97;1844902;78;20969;-76
2022/05/14 07:39:02;;;;;;;4.08;3.00;;;;;;;20.12;66.67;97656.35;1845051;78;20953;-77
2022/05/14 07:41:30;;;;;;;3.72;3.27;;;;;;;20.20;66.76;97653.56;1844456;78;21072;-76
2022/05/14 07:43:58;;;;;;;5.28;3.20;;;;;;;20.20;65.14;97655.78;1844944;78;21043;-77
2022/05/14 07:46:28;;;;;;;3.95;3.40;;;;;;;20.17;64.32;97658.21;1844776;78;21188;-77
2022/05/14 07:48:58;;;;;;;5.28;3.50;;;;;;;20.19;64.25;97663.48;1844878;78;20965;-77
2022/05/14 07:51:25;;;;;;;6.90;3.10;;;;;;;20.25;65.30;97660.33;1844881;78;21414;-77
2022/05/14 07:53:53;;;;;;;4.28;3.10;;;;;;;20.29;65.18;97666.33;1844828;78;21013;-77
2022/05/14 07:56:20;;;;;;;4.47;3.40;;;;;;;20.30;63.83;97666.22;1844811;78;20949;-77
2022/05/14 07:58:47;;;;;;;3.80;3.10;;;;;;;20.35;65.08;97667.23;1848809;77;20992;-77
2022/05/14 08:01:15;;;;;;;4.40;3.10;;;;;;;20.42;65.23;97659.53;1849778;77;21437;-77
2022/05/14 08:03:42;;;;;;;3.95;3.00;;;;;;;20.48;65.87;97664.47;1849870;77;20972;-77
2022/05/14 08:06:10;;;;;;;3.95;3.25;;;;;;;20.56;66.11;97668.77;1849898;77;21027;-77
2022/05/14 08:08:37;;;;;;;5.45;3.70;;;;;;;20.62;63.20;97656.68;1849852;77;21008;-77
2022/05/14 08:11:03;;;;;;;7.85;4.17;;;;;;;20.76;65.05;97655.61;1849727;77;21402;-77
2022/05/14 08:13:33;;;;;;;6.92;3.98;;;;;;;20.88;64.67;97670.50;1849947;77;21017;-76
2022/05/14 08:15:58;;;;;;;6.37;3.80;;;;;;;20.91;62.39;97673.81;1849696;77;21434;-77
2022/05/14 08:18:25;;;;;;;5.05;4.03;;;;;;;20.93;63.51;97669.15;1849863;77;21006;-77
2022/05/14 08:20:51;;;;;;;4.62;3.70;;;;;;;21.03;62.94;97672.00;1849945;77;21024;-77
2022/05/14 08:26:04;;;;;;;3.87;3.35;;;;;;;21.09;62.96;97671.52;1849778;77;20996;-76
2022/05/14 08:28:31;;;;;;;7.25;3.70;;;;;;;20.98;61.17;97666.12;1849765;77;20989;-76
2022/05/14 08:30:58;;;;;;;3.90;3.58;;;;;;;21.01;61.91;97671.24;1849774;77;20997;-76
2022/05/14 08:33:24;;;;;;;4.92;3.77;;;;;;;21.05;61.75;97671.38;1849988;77;20969;-77
2022/05/14 08:35:50;;;;;;;4.58;3.70;;;;;;;21.01;62.61;97676.63;1849888;77;22125;-76
2022/05/14 08:38:18;;;;;;;5.03;3.30;;;;;;;21.03;62.54;97675.17;1849590;77;20996;-76
2022/05/14 08:40:57;;;;;;;4.97;3.62;;;;;;;20.83;59.04;97677.06;1849847;77;20969;-77
2022/05/14 08:43:30;;;;;;;6.65;3.80;;;;;;;20.95;61.95;97674.42;1849670;77;21036;-77
2022/05/14 08:45:56;;;;;;;5.72;3.87;;;;;;;21.06;62.31;97674.44;1849762;77;21123;-76
2022/05/14 08:48:32;;;;;;;21.20;16.00;;;;;;;21.14;62.09;97683.77;1849815;77;21523;-76
2022/05/14 08:51:08;;;;;;;5.95;4.92;;;;;;;21.22;60.68;97680.84;1848482;77;21473;-76
2022/05/14 08:53:37;;;;;;;3.65;3.10;;;;;;;21.31;59.55;97679.75;1849334;77;20992;-76
2022/05/14 08:56:29;;;;;;;4.40;3.20;;;;;;;21.43;60.18;97681.97;1849804;77;20941;-77
2022/05/14 08:59:22;;;;;;;4.33;3.65;;;;;;;21.56;57.74;97680.02;1849555;77;21033;-77
2022/05/14 09:01:50;;;;;;;6.22;3.45;;;;;;;21.60;58.76;97684.66;1850021;77;20992;-75
2022/05/14 09:04:20;;;;;;;3.58;3.27;;;;;;;21.47;55.39;97689.67;1849856;77;21485;-75
2022/05/14 09:06:47;;;;;;;6.50;4.22;;;;;;;21.47;57.32;97674.84;1850012;77;21028;-75
2022/05/14 09:09:14;;;;;;;6.78;3.55;;;;;;;21.43;56.06;97692.75;1850133;77;20985;-75
2022/05/14 09:11:47;;;;;;;5.37;3.22;;;;;;;21.39;58.64;97678.66;1849912;77;21027;-75
2022/05/14 09:14:29;;;;;;;5.05;3.35;;;;;;;21.26;56.11;97691.39;1849763;77;21100;-75
2022/05/14 09:17:01;;;;;;;5.53;3.27;;;;;;;21.19;55.37;97690.53;1850199;77;21036;-75
2022/05/14 09:19:34;;;;;;;4.75;3.35;;;;;;;21.17;56.58;97678.99;1850253;77;21097;-76
2022/05/14 09:22:04;;;;;;;5.90;3.90;;;;;;;21.61;57.57;97680.98;1840336;77;21044;-76
2022/05/14 09:24:34;;;;;;;4.62;3.12;;;;;;;21.61;57.57;97680.98;1848337;77;20989;-76
2022/05/14 09:27:13;;;;;;;4.30;3.00;;;;;;;21.70;55.08;97680.24;1848354;77;20988;-75
2022/05/14 09:29:43;;;;;;;4.03;3.30;;;;;;;21.72;52.98;97686.90;1850139;77;21110;-76
2022/05/14 09:32:22;;;;;;;5.25;2.90;;;;;;;21.66;52.48;97677.42;1850282;77;21441;-76
2022/05/14 09:34:49;;;;;;;3.60;3.02;;;;;;;21.65;53.09;97674.36;1850066;77;20989;-75
2022/05/14 09:37:24;;;;;;;6.05;3.00;;;;;;;21.74;53.28;97677.70;1850067;77;20979;-76
2022/05/14 09:40:01;;;;;;;6.47;2.90;;;;;;;21.88;53.89;97677.08;1850072;77;21397;-75
2022/05/14 09:42:37;;;;;;;4.75;3.30;;;;;;;22.05;53.45;97681.58;1850034;77;20961;-75
2022/05/14 09:45:08;;;;;;;7.30;3.30;;;;;;;21.91;52.03;97663.32;1850179;77;21020;-75
2022/05/14 09:47:34;;;;;;;3.95;2.95;;;;;;;22.03;52.47;97665.50;1846397;77;20985;-75
2022/05/14 09:50:04;;;;;;;5.45;2.98;;;;;;;22.03;52.47;97665.50;1850255;77;21389;-75
2022/05/14 09:52:34;;;;;;;4.10;2.95;;;;;;;22.02;50.05;97663.80;1850069;77;20976;-75
2022/05/14 09:55:04;;;;;;;4.15;3.17;;;;;;;22.02;50.43;97654.36;1850000;77;21063;-75
2022/05/14 09:57:46;;;;;;;4.72;3.05;;;;;;;22.13;52.28;97661.06;1850014;77;21020;-77
2022/05/14 10:00:21;;;;;;;6.83;3.10;;;;;;;22.47;51.63;97661.45;1849817;77;21001;-75
2022/05/14 10:02:57;;;;;;;5.33;3.20;;;;;;;22.47;51.63;97661.45;1850007;77;21425;-76
2022/05/14 10:05:41;;;;;;;5.92;3.33;;;;;;;22.58;50.69;97661.06;1849811;77;21131;-76
2022/05/14 10:08:44;;;;;;;4.50;2.87;;;;;;;22.65;49.97;97666.30;1849938;77;21008;-76
2022/05/14 10:11:30;;;;;;;5.20;3.33;;;;;;;22.71;50.04;97654.97;1850317;77;21032;-76
2022/05/14 10:14:06;;;;;;;3.62;3.00;;;;;;;22.81;49.00;97656.40;1850060;77;21422;-76
2022/05/14 10:17:00;;;;;;;5.55;3.10;;;;;;;22.91;47.06;97660.50;1849179;77;21112;-76
2022/05/14 10:19:54;;;;;;;6.15;3.25;;;;;;;22.90;48.09;97657.45;1850197;77;21492;-76
2022/05/14 10:26:44;;;;;;;4.28;2.75;;;;;;;23.00;49.27;97658.36;1849986;77;20993;-76
2022/05/14 10:28:01;;;;;;;5.15;2.92;;;;;;;23.03;47.16;97654.53;1850232;77;20961;-76
2022/05/14 10:30:30;;;;;;;4.15;2.90;;;;;;;22.87;47.28;97650.46;1849780;77;21069;-76
2022/05/14 10:33:03;;;;;;;7.65;3.37;;;;;;;22.97;49.32;97657.30;1846547;77;20992;-76
2022/05/14 10:35:52;;;;;;;6.65;4.10;;;;;;;22.96;46.65;97664.17;1850002;77;21055;-76
2022/05/14 10:38:25;;;;;;;4.92;3.20;;;;;;;22.99;47.88;97645.84;1850087;77;21078;-76
2022/05/14 10:40:55;;;;;;;4.55;3.10;;;;;;;23.56;44.70;97647.29;1850356;77;21469;-76
2022/05/14 10:43:44;;;;;;;5.53;3.42;;;;;;;24.63;43.20;97653.89;1849285;77;20972;-77
2022/05/14 10:46:13;;;;;;;4.67;3.37;;;;;;;25.64;42.91;97634.57;1834834;77;21028;-77
2022/05/14 10:48:52;;;;;;;4.70;3.25;;;;;;;26.85;41.30;97623.92;1849991;77;20989;-76
2022/05/14 10:51:22;;;;;;;5.25;3.00;;;;;;;27.59;39.81;97644.45;1849608;77;21417;-77
2022/05/14 10:53:49;;;;;;;4.97;3.08;;;;;;;28.05;34.66;97626.44;1849015;77;21417;-76
2022/05/14 10:56:28;;;;;;;4.90;2.83;;;;;;;28.73;37.85;97633.72;1849986;77;21583;-76
2022/05/14 10:59:05;;;;;;;3.20;2.90;;;;;;;28.55;37.31;97642.03;1848653;77;21000;-76
2022/05/14 11:01:37;;;;;;;4.90;3.20;;;;;;;29.27;35.29;97638.27;1843389;77;20997;-75
2022/05/14 11:04:13;;;;;;;6.05;3.08;;;;;;;29.76;34.12;97624.98;1843862;77;20965;-76
2022/05/14 11:06:58;;;;;;;4.83;2.90;;;;;;;30.13;32.64;97635.76;1843871;77;20969;-77
2022/05/14 11:09:38;;;;;;;10.08;3.40;;;;;;;30.14;33.27;97629.25;1843313;77;21040;-77
2022/05/14 11:12:20;;;;;;;4.35;2.70;;;;;;;30.90;32.75;97635.05;1843601;78;21032;-76
2022/05/14 11:14:53;;;;;;;5.45;2.85;;;;;;;31.14;29.11;97631.75;1843828;78;21103;-77
2022/05/14 11:17:28;;;;;;;3.30;2.80;;;;;;;31.03;28.31;97632.54;1843911;78;21422;-77
2022/05/14 11:20:08;;;;;;;4.53;3.08;;;;;;;30.73;28.71;97635.72;1843830;77;22109;-77
2022/05/14 11:22:40;;;;;;;5.72;3.67;;;;;;;29.83;31.27;97637.41;1843738;78;21426;-77
2022/05/14 11:25:19;;;;;;;6.35;3.02;;;;;;;30.41;30.20;97637.98;1843805;78;21020;-77
2022/05/14 11:27:58;;;;;;;4.80;3.52;;;;;;;31.04;30.94;97637.48;1843735;78;20985;-77
2022/05/14 11:30:43;;;;;;;8.38;3.08;;;;;;;31.54;30.51;97629.63;1824769;77;21390;-77
2022/05/14 11:33:31;;;;;;;3.72;2.50;;;;;;;32.25;30.36;97628.72;1843663;77;21367;-77
2022/05/14 11:36:01;;;;;;;3.25;2.55;;;;;;;32.90;29.52;97627.89;1843806;77;21037;-77
2022/05/14 11:38:31;;;;;;;4.40;2.30;;;;;;;32.94;27.17;97625.08;1843631;77;21000;-77
2022/05/14 11:41:00;;;;;;;5.70;3.20;;;;;;;33.57;28.06;97629.80;1843847;77;20982;-77
2022/05/14 11:43:39;;;;;;;4.70;2.67;;;;;;;33.99;26.31;97625.33;1843592;78;21084;-77
2022/05/14 11:46:21;;;;;;;5.95;2.90;;;;;;;34.31;26.19;97626.52;1843545;77;21020;-77
2022/05/14 11:49:09;;;;;;;4.72;2.30;;;;;;;34.22;25.40;97629.13;1843817;78;21005;-77
2022/05/14 11:51:54;;;;;;;2.52;2.25;;;;;;;33.88;24.55;97619.38;1843727;78;21013;-78
2022/05/14 11:54:24;;;;;;;3.87;2.10;;;;;;;33.90;23.97;97622.75;1842611;77;21036;-77
2022/05/14 11:56:57;;;;;;;5.95;2.50;;;;;;;34.36;24.80;97621.23;1843581;78;21442;-77
2022/05/14 11:59:42;;;;;;;4.12;2.60;;;;;;;34.66;22.07;97617.82;1843225;77;21565;-77
2022/05/14 12:02:24;;;;;;;5.65;2.52;;;;;;;34.40;23.88;97617.53;1843794;78;21019;-77
2022/05/14 12:04:54;;;;;;;3.25;2.27;;;;;;;34.65;24.15;97622.47;1843815;77;21363;-77